Terminal Aerodrome Forecast
Issued by NWS Twin Cities, MN

Home | Current Version | Previous Version | Graphics & Text | Print | Product List | Glossary On
Versions: 1 2 3 4 5 6 7 8 9 10 11 12 13 14 15
000
FTUS43 KMPX 200731 AAA
TAFSTC
TAF AMD
KSTC 200731Z 2008/2106 01008KT 6SM -SN BR OVC012
      TEMPO 2008/2012 2SM -SN BR OVC008
     FM201200 01007KT 3SM -SN BR OVC012
     FM201400 34010KT P6SM OVC015
     FM210200 29010KT P6SM SKC=

USA.gov is the U.S. government's official web portal to all federal, state and local government web resources and services.